sensor_id;sensor_type;location;lat;lon;timestamp;temperature;humidity
22173;DHT22;11252;50.596;17.648;2022-09-09T00:00:26;16.10;92.20
22173;DHT22;11252;50.596;17.648;2022-09-09T00:03:14;16.10;92.20
22173;DHT22;11252;50.596;17.648;2022-09-09T00:08:21;16.00;92.20
22173;DHT22;11252;50.596;17.648;2022-09-09T00:11:01;16.00;92.20
22173;DHT22;11252;50.596;17.648;2022-09-09T00:13:46;16.00;92.20
22173;DHT22;11252;50.596;17.648;2022-09-09T00:16:28;15.90;92.20
22173;DHT22;11252;50.596;17.648;2022-09-09T00:19:38;15.90;92.20
22173;DHT22;11252;50.596;17.648;2022-09-09T00:22:24;15.80;92.20
22173;DHT22;11252;50.596;17.648;2022-09-09T00:25:12;15.70;92.20
22173;DHT22;11252;50.596;17.648;2022-09-09T00:27:48;15.70;92.20
22173;DHT22;11252;50.596;17.648;2022-09-09T00:30:24;15.70;92.20
22173;DHT22;11252;50.596;17.648;2022-09-09T00:32:59;15.70;92.20
22173;DHT22;11252;50.596;17.648;2022-09-09T00:35:34;15.60;92.20
22173;DHT22;11252;50.596;17.648;2022-09-09T00:38:48;15.60;92.20
22173;DHT22;11252;50.596;17.648;2022-09-09T00:41:50;15.60;92.20
22173;DHT22;11252;50.596;17.648;2022-09-09T00:44:34;15.60;92.20
22173;DHT22;11252;50.596;17.648;2022-09-09T00:58:02;15.50;92.20
22173;DHT22;11252;50.596;17.648;2022-09-09T01:00:33;15.50;92.20
22173;DHT22;11252;50.596;17.648;2022-09-09T01:03:10;15.50;92.20
22173;DHT22;11252;50.596;17.648;2022-09-09T01:08:54;15.40;92.20
22173;DHT22;11252;50.596;17.648;2022-09-09T01:11:26;15.40;92.20
22173;DHT22;11252;50.596;17.648;2022-09-09T01:14:05;15.40;92.20
22173;DHT22;11252;50.596;17.648;2022-09-09T01:16:37;15.40;92.20
22173;DHT22;11252;50.596;17.648;2022-09-09T01:19:07;15.40;92.20
22173;DHT22;11252;50.596;17.648;2022-09-09T01:22:44;15.30;92.20
22173;DHT22;11252;50.596;17.648;2022-09-09T01:27:52;15.20;92.20
22173;DHT22;11252;50.596;17.648;2022-09-09T01:30:21;15.30;92.20
22173;DHT22;11252;50.596;17.648;2022-09-09T01:32:51;15.30;92.20
22173;DHT22;11252;50.596;17.648;2022-09-09T01:37:57;15.30;92.20
22173;DHT22;11252;50.596;17.648;2022-09-09T01:40:25;15.20;92.20
22173;DHT22;11252;50.596;17.648;2022-09-09T01:42:53;15.20;92.20
22173;DHT22;11252;50.596;17.648;2022-09-09T01:45:24;15.20;92.20
22173;DHT22;11252;50.596;17.648;2022-09-09T01:47:53;15.10;92.20
22173;DHT22;11252;50.596;17.648;2022-09-09T01:50:21;15.10;92.20
22173;DHT22;11252;50.596;17.648;2022-09-09T01:52:54;15.00;92.20
22173;DHT22;11252;50.596;17.648;2022-09-09T01:55:38;15.00;92.20
22173;DHT22;11252;50.596;17.648;2022-09-09T02:01:15;15.00;92.20
22173;DHT22;11252;50.596;17.648;2022-09-09T02:03:52;15.00;92.20
22173;DHT22;11252;50.596;17.648;2022-09-09T02:09:02;14.90;92.20
22173;DHT22;11252;50.596;17.648;2022-09-09T02:11:31;14.80;92.20
22173;DHT22;11252;50.596;17.648;2022-09-09T02:14:23;14.70;92.20
22173;DHT22;11252;50.596;17.648;2022-09-09T02:16:59;14.60;92.20
22173;DHT22;11252;50.596;17.648;2022-09-09T02:19:39;14.60;92.20
22173;DHT22;11252;50.596;17.648;2022-09-09T02:22:08;14.60;92.20
22173;DHT22;11252;50.596;17.648;2022-09-09T02:24:38;14.60;92.20
22173;DHT22;11252;50.596;17.648;2022-09-09T02:27:08;14.70;92.20
22173;DHT22;11252;50.596;17.648;2022-09-09T02:29:42;14.70;92.20
22173;DHT22;11252;50.596;17.648;2022-09-09T02:32:17;14.80;92.20
22173;DHT22;11252;50.596;17.648;2022-09-09T02:34:48;14.80;92.20
22173;DHT22;11252;50.596;17.648;2022-09-09T02:37:19;14.70;92.20
22173;DHT22;11252;50.596;17.648;2022-09-09T02:39:47;14.70;92.20
22173;DHT22;11252;50.596;17.648;2022-09-09T02:42:14;14.70;92.20
22173;DHT22;11252;50.596;17.648;2022-09-09T02:44:42;14.70;92.20
22173;DHT22;11252;50.596;17.648;2022-09-09T02:47:35;14.70;92.20
22173;DHT22;11252;50.596;17.648;2022-09-09T02:50:19;14.70;92.20
22173;DHT22;11252;50.596;17.648;2022-09-09T02:56:01;14.80;92.20
22173;DHT22;11252;50.596;17.648;2022-09-09T02:58:31;14.80;92.20
22173;DHT22;11252;50.596;17.648;2022-09-09T03:00:58;14.80;92.20
22173;DHT22;11252;50.596;17.648;2022-09-09T03:03:28;14.70;92.20
22173;DHT22;11252;50.596;17.648;2022-09-09T03:05:56;14.70;92.20
22173;DHT22;11252;50.596;17.648;2022-09-09T03:08:24;14.60;92.20
22173;DHT22;11252;50.596;17.648;2022-09-09T03:10:51;14.60;92.20
22173;DHT22;11252;50.596;17.648;2022-09-09T03:13:21;14.60;92.20
22173;DHT22;11252;50.596;17.648;2022-09-09T03:15:48;14.50;92.20
22173;DHT22;11252;50.596;17.648;2022-09-09T03:18:15;14.60;92.20
22173;DHT22;11252;50.596;17.648;2022-09-09T03:20:43;14.60;92.20
22173;DHT22;11252;50.596;17.648;2022-09-09T03:23:10;14.70;92.20
22173;DHT22;11252;50.596;17.648;2022-09-09T03:25:49;14.60;92.20
22173;DHT22;11252;50.596;17.648;2022-09-09T03:28:17;14.60;92.20
22173;DHT22;11252;50.596;17.648;2022-09-09T03:30:44;14.50;92.20
22173;DHT22;11252;50.596;17.648;2022-09-09T03:33:11;14.40;92.20
22173;DHT22;11252;50.596;17.648;2022-09-09T03:35:45;14.40;92.20
22173;DHT22;11252;50.596;17.648;2022-09-09T03:38:15;14.40;92.20
22173;DHT22;11252;50.596;17.648;2022-09-09T03:40:51;14.40;92.20
22173;DHT22;11252;50.596;17.648;2022-09-09T03:43:23;14.40;92.20
22173;DHT22;11252;50.596;17.648;2022-09-09T03:45:51;14.40;92.20
22173;DHT22;11252;50.596;17.648;2022-09-09T03:48:19;14.40;92.20
22173;DHT22;11252;50.596;17.648;2022-09-09T03:50:48;14.40;92.20
22173;DHT22;11252;50.596;17.648;2022-09-09T03:53:18;14.30;92.20
22173;DHT22;11252;50.596;17.648;2022-09-09T03:55:47;14.30;92.20
22173;DHT22;11252;50.596;17.648;2022-09-09T03:58:15;14.30;92.20
22173;DHT22;11252;50.596;17.648;2022-09-09T04:00:43;14.30;92.20
22173;DHT22;11252;50.596;17.648;2022-09-09T04:03:12;14.30;92.20
22173;DHT22;11252;50.596;17.648;2022-09-09T04:05:39;14.30;92.20
22173;DHT22;11252;50.596;17.648;2022-09-09T04:08:09;14.30;92.20
22173;DHT22;11252;50.596;17.648;2022-09-09T04:10:36;14.30;92.20
22173;DHT22;11252;50.596;17.648;2022-09-09T04:13:05;14.40;92.20
22173;DHT22;11252;50.596;17.648;2022-09-09T04:15:32;14.40;92.20
22173;DHT22;11252;50.596;17.648;2022-09-09T04:18:01;14.40;92.20
22173;DHT22;11252;50.596;17.648;2022-09-09T04:20:29;14.40;92.20
22173;DHT22;11252;50.596;17.648;2022-09-09T04:22:57;14.40;92.20
22173;DHT22;11252;50.596;17.648;2022-09-09T04:25:24;14.40;92.20
22173;DHT22;11252;50.596;17.648;2022-09-09T04:27:55;14.40;92.20
22173;DHT22;11252;50.596;17.648;2022-09-09T04:30:24;14.40;92.20
22173;DHT22;11252;50.596;17.648;2022-09-09T04:32:52;14.30;92.20
22173;DHT22;11252;50.596;17.648;2022-09-09T04:35:19;14.30;92.20
22173;DHT22;11252;50.596;17.648;2022-09-09T04:37:47;14.40;92.20
22173;DHT22;11252;50.596;17.648;2022-09-09T04:40:15;14.40;92.20
22173;DHT22;11252;50.596;17.648;2022-09-09T04:42:43;14.40;92.20
22173;DHT22;11252;50.596;17.648;2022-09-09T04:45:10;14.40;92.20
22173;DHT22;11252;50.596;17.648;2022-09-09T04:47:38;14.30;92.20
22173;DHT22;11252;50.596;17.648;2022-09-09T04:50:06;14.30;92.20
22173;DHT22;11252;50.596;17.648;2022-09-09T04:52:35;14.40;92.20
22173;DHT22;11252;50.596;17.648;2022-09-09T04:55:03;14.40;92.20
22173;DHT22;11252;50.596;17.648;2022-09-09T04:57:30;14.40;92.20
22173;DHT22;11252;50.596;17.648;2022-09-09T04:59:59;14.40;92.20
22173;DHT22;11252;50.596;17.648;2022-09-09T05:02:27;14.40;92.20
22173;DHT22;11252;50.596;17.648;2022-09-09T05:04:57;14.40;92.20
22173;DHT22;11252;50.596;17.648;2022-09-09T05:07:26;14.50;92.20
22173;DHT22;11252;50.596;17.648;2022-09-09T05:09:54;14.50;92.20
22173;DHT22;11252;50.596;17.648;2022-09-09T05:12:22;14.50;92.20
22173;DHT22;11252;50.596;17.648;2022-09-09T05:14:53;14.60;92.20
22173;DHT22;11252;50.596;17.648;2022-09-09T05:17:20;14.60;92.20
22173;DHT22;11252;50.596;17.648;2022-09-09T05:19:48;14.70;92.20
22173;DHT22;11252;50.596;17.648;2022-09-09T05:22:22;14.80;92.20
22173;DHT22;11252;50.596;17.648;2022-09-09T05:24:50;14.90;92.20
22173;DHT22;11252;50.596;17.648;2022-09-09T05:27:20;15.00;92.20
22173;DHT22;11252;50.596;17.648;2022-09-09T05:29:48;15.10;92.20
22173;DHT22;11252;50.596;17.648;2022-09-09T05:32:16;15.20;92.20
22173;DHT22;11252;50.596;17.648;2022-09-09T05:34:44;15.40;92.20
22173;DHT22;11252;50.596;17.648;2022-09-09T05:37:11;15.50;92.20
22173;DHT22;11252;50.596;17.648;2022-09-09T05:39:38;15.60;92.20
22173;DHT22;11252;50.596;17.648;2022-09-09T05:42:06;15.80;92.20
22173;DHT22;11252;50.596;17.648;2022-09-09T05:44:34;16.00;92.20
22173;DHT22;11252;50.596;17.648;2022-09-09T05:47:01;16.10;92.20
22173;DHT22;11252;50.596;17.648;2022-09-09T05:49:29;16.30;92.20
22173;DHT22;11252;50.596;17.648;2022-09-09T05:51:57;16.50;92.20
22173;DHT22;11252;50.596;17.648;2022-09-09T05:54:24;16.70;92.20
22173;DHT22;11252;50.596;17.648;2022-09-09T05:56:52;16.80;92.20
22173;DHT22;11252;50.596;17.648;2022-09-09T05:59:20;16.80;92.20
22173;DHT22;11252;50.596;17.648;2022-09-09T06:01:49;16.90;92.20
22173;DHT22;11252;50.596;17.648;2022-09-09T06:04:16;17.00;92.20
22173;DHT22;11252;50.596;17.648;2022-09-09T06:06:43;17.10;92.20
22173;DHT22;11252;50.596;17.648;2022-09-09T06:09:11;17.20;92.20
22173;DHT22;11252;50.596;17.648;2022-09-09T06:11:39;17.30;92.20
22173;DHT22;11252;50.596;17.648;2022-09-09T06:14:07;17.40;92.20
22173;DHT22;11252;50.596;17.648;2022-09-09T06:16:35;17.50;92.20
22173;DHT22;11252;50.596;17.648;2022-09-09T06:19:04;17.60;92.20
22173;DHT22;11252;50.596;17.648;2022-09-09T06:21:36;17.70;92.20
22173;DHT22;11252;50.596;17.648;2022-09-09T06:24:07;17.90;92.20
22173;DHT22;11252;50.596;17.648;2022-09-09T06:26:39;18.00;92.20
22173;DHT22;11252;50.596;17.648;2022-09-09T06:29:10;18.20;92.20
22173;DHT22;11252;50.596;17.648;2022-09-09T06:31:37;18.30;92.20
22173;DHT22;11252;50.596;17.648;2022-09-09T06:34:06;18.50;92.20
22173;DHT22;11252;50.596;17.648;2022-09-09T06:36:36;18.60;92.20
22173;DHT22;11252;50.596;17.648;2022-09-09T06:39:05;18.70;92.20
22173;DHT22;11252;50.596;17.648;2022-09-09T06:41:39;18.60;92.20
22173;DHT22;11252;50.596;17.648;2022-09-09T06:44:09;18.60;92.20
22173;DHT22;11252;50.596;17.648;2022-09-09T06:46:42;18.70;92.20
22173;DHT22;11252;50.596;17.648;2022-09-09T06:49:10;18.90;92.20
22173;DHT22;11252;50.596;17.648;2022-09-09T06:51:38;19.00;92.20
22173;DHT22;11252;50.596;17.648;2022-09-09T06:54:11;19.20;92.20
22173;DHT22;11252;50.596;17.648;2022-09-09T06:56:40;19.20;92.20
22173;DHT22;11252;50.596;17.648;2022-09-09T06:59:10;19.40;92.20
22173;DHT22;11252;50.596;17.648;2022-09-09T07:01:41;19.50;92.20
22173;DHT22;11252;50.596;17.648;2022-09-09T07:04:09;19.50;92.20
22173;DHT22;11252;50.596;17.648;2022-09-09T07:06:43;19.60;92.20
22173;DHT22;11252;50.596;17.648;2022-09-09T07:09:13;19.80;92.20
22173;DHT22;11252;50.596;17.648;2022-09-09T07:11:47;19.80;92.20
22173;DHT22;11252;50.596;17.648;2022-09-09T07:14:15;19.90;92.20
22173;DHT22;11252;50.596;17.648;2022-09-09T07:16:43;20.00;92.20
22173;DHT22;11252;50.596;17.648;2022-09-09T07:19:11;20.20;92.20
22173;DHT22;11252;50.596;17.648;2022-09-09T07:21:39;20.30;92.20
22173;DHT22;11252;50.596;17.648;2022-09-09T07:24:08;20.50;92.20
22173;DHT22;11252;50.596;17.648;2022-09-09T07:26:40;20.60;92.20
22173;DHT22;11252;50.596;17.648;2022-09-09T07:29:08;20.90;92.20
22173;DHT22;11252;50.596;17.648;2022-09-09T07:31:37;21.10;92.20
22173;DHT22;11252;50.596;17.648;2022-09-09T07:34:05;21.20;92.20
22173;DHT22;11252;50.596;17.648;2022-09-09T07:36:35;21.30;92.20
22173;DHT22;11252;50.596;17.648;2022-09-09T07:39:05;21.10;92.20
22173;DHT22;11252;50.596;17.648;2022-09-09T07:41:38;20.90;92.20
22173;DHT22;11252;50.596;17.648;2022-09-09T07:44:08;20.90;92.20
22173;DHT22;11252;50.596;17.648;2022-09-09T07:46:38;21.10;92.20
22173;DHT22;11252;50.596;17.648;2022-09-09T07:49:09;21.30;92.20
22173;DHT22;11252;50.596;17.648;2022-09-09T07:51:39;21.40;92.10
22173;DHT22;11252;50.596;17.648;2022-09-09T07:54:10;21.40;91.70
22173;DHT22;11252;50.596;17.648;2022-09-09T07:56:39;21.50;92.20
22173;DHT22;11252;50.596;17.648;2022-09-09T07:59:08;21.70;92.20
22173;DHT22;11252;50.596;17.648;2022-09-09T08:01:42;21.80;92.20
22173;DHT22;11252;50.596;17.648;2022-09-09T08:04:18;21.90;89.50
22173;DHT22;11252;50.596;17.648;2022-09-09T08:06:51;22.00;90.70
22173;DHT22;11252;50.596;17.648;2022-09-09T08:09:20;21.80;89.00
22173;DHT22;11252;50.596;17.648;2022-09-09T08:11:48;21.50;88.80
22173;DHT22;11252;50.596;17.648;2022-09-09T08:14:16;21.30;91.00
22173;DHT22;11252;50.596;17.648;2022-09-09T08:16:46;21.20;91.70
22173;DHT22;11252;50.596;17.648;2022-09-09T08:19:14;21.10;92.20
22173;DHT22;11252;50.596;17.648;2022-09-09T08:21:45;21.10;92.20
22173;DHT22;11252;50.596;17.648;2022-09-09T08:24:13;21.20;92.20
22173;DHT22;11252;50.596;17.648;2022-09-09T08:26:46;21.30;91.90
22173;DHT22;11252;50.596;17.648;2022-09-09T08:29:14;21.40;91.90
22173;DHT22;11252;50.596;17.648;2022-09-09T08:31:48;21.50;92.20
22173;DHT22;11252;50.596;17.648;2022-09-09T08:34:16;21.60;92.20
22173;DHT22;11252;50.596;17.648;2022-09-09T08:36:48;21.70;92.20
22173;DHT22;11252;50.596;17.648;2022-09-09T08:39:17;21.90;92.20
22173;DHT22;11252;50.596;17.648;2022-09-09T08:41:59;22.10;91.80
22173;DHT22;11252;50.596;17.648;2022-09-09T08:45:00;22.20;90.50
22173;DHT22;11252;50.596;17.648;2022-09-09T08:50:27;22.30;86.50
22173;DHT22;11252;50.596;17.648;2022-09-09T08:55:53;22.10;87.30
22173;DHT22;11252;50.596;17.648;2022-09-09T08:58:29;22.10;87.60
22173;DHT22;11252;50.596;17.648;2022-09-09T09:04:04;22.50;91.80
22173;DHT22;11252;50.596;17.648;2022-09-09T09:09:26;22.80;86.20
22173;DHT22;11252;50.596;17.648;2022-09-09T09:12:00;22.90;89.60
22173;DHT22;11252;50.596;17.648;2022-09-09T09:14:33;23.30;86.30
22173;DHT22;11252;50.596;17.648;2022-09-09T09:17:06;23.60;85.30
22173;DHT22;11252;50.596;17.648;2022-09-09T09:19:39;24.00;89.20
22173;DHT22;11252;50.596;17.648;2022-09-09T09:22:22;24.30;88.80
22173;DHT22;11252;50.596;17.648;2022-09-09T09:24:53;24.50;88.70
22173;DHT22;11252;50.596;17.648;2022-09-09T09:27:43;24.50;88.70
22173;DHT22;11252;50.596;17.648;2022-09-09T09:30:18;24.50;86.40
22173;DHT22;11252;50.596;17.648;2022-09-09T09:35:40;24.70;82.50
22173;DHT22;11252;50.596;17.648;2022-09-09T09:38:27;24.60;81.00
22173;DHT22;11252;50.596;17.648;2022-09-09T09:41:15;24.90;81.70
22173;DHT22;11252;50.596;17.648;2022-09-09T09:43:42;24.90;83.30
22173;DHT22;11252;50.596;17.648;2022-09-09T09:46:22;25.40;85.20
22173;DHT22;11252;50.596;17.648;2022-09-09T09:49:04;25.90;83.70
22173;DHT22;11252;50.596;17.648;2022-09-09T09:51:33;25.90;79.90
22173;DHT22;11252;50.596;17.648;2022-09-09T09:56:41;25.60;76.10
22173;DHT22;11252;50.596;17.648;2022-09-09T10:04:40;25.50;76.40
22173;DHT22;11252;50.596;17.648;2022-09-09T10:07:13;25.50;76.80
22173;DHT22;11252;50.596;17.648;2022-09-09T10:09:40;25.60;77.10
22173;DHT22;11252;50.596;17.648;2022-09-09T10:17:54;26.80;80.40
22173;DHT22;11252;50.596;17.648;2022-09-09T10:20:35;27.20;73.30
22173;DHT22;11252;50.596;17.648;2022-09-09T10:29:03;27.00;73.10
22173;DHT22;11252;50.596;17.648;2022-09-09T10:31:59;26.60;75.20
22173;DHT22;11252;50.596;17.648;2022-09-09T10:34:43;25.80;76.00
22173;DHT22;11252;50.596;17.648;2022-09-09T10:37:41;25.00;76.10
22173;DHT22;11252;50.596;17.648;2022-09-09T10:42:48;24.50;79.80
22173;DHT22;11252;50.596;17.648;2022-09-09T10:45:20;24.60;79.40
22173;DHT22;11252;50.596;17.648;2022-09-09T10:48:08;24.60;78.80
22173;DHT22;11252;50.596;17.648;2022-09-09T10:56:12;25.30;79.30
22173;DHT22;11252;50.596;17.648;2022-09-09T10:58:52;25.30;78.30
22173;DHT22;11252;50.596;17.648;2022-09-09T11:01:31;25.20;78.50
22173;DHT22;11252;50.596;17.648;2022-09-09T11:04:10;24.90;77.50
22173;DHT22;11252;50.596;17.648;2022-09-09T11:06:41;24.70;77.10
22173;DHT22;11252;50.596;17.648;2022-09-09T11:09:16;24.80;77.80
22173;DHT22;11252;50.596;17.648;2022-09-09T11:11:52;24.80;78.70
22173;DHT22;11252;50.596;17.648;2022-09-09T11:14:34;24.70;77.40
22173;DHT22;11252;50.596;17.648;2022-09-09T11:17:31;24.60;79.70
22173;DHT22;11252;50.596;17.648;2022-09-09T11:20:01;24.80;78.40
22173;DHT22;11252;50.596;17.648;2022-09-09T11:22:40;25.30;80.50
22173;DHT22;11252;50.596;17.648;2022-09-09T11:25:32;26.10;76.00
22173;DHT22;11252;50.596;17.648;2022-09-09T11:36:54;27.90;73.80
22173;DHT22;11252;50.596;17.648;2022-09-09T11:41:54;28.70;71.50
22173;DHT22;11252;50.596;17.648;2022-09-09T11:44:33;28.70;73.10
22173;DHT22;11252;50.596;17.648;2022-09-09T11:47:01;28.40;75.50
22173;DHT22;11252;50.596;17.648;2022-09-09T11:49:41;28.50;74.90
22173;DHT22;11252;50.596;17.648;2022-09-09T11:52:23;28.40;69.00
22173;DHT22;11252;50.596;17.648;2022-09-09T11:54:55;27.70;67.20
22173;DHT22;11252;50.596;17.648;2022-09-09T11:57:32;27.00;69.00
22173;DHT22;11252;50.596;17.648;2022-09-09T12:00:02;26.80;71.10
22173;DHT22;11252;50.596;17.648;2022-09-09T12:02:30;26.90;74.60
22173;DHT22;11252;50.596;17.648;2022-09-09T12:05:08;26.90;73.60
22173;DHT22;11252;50.596;17.648;2022-09-09T12:07:45;27.20;74.20
22173;DHT22;11252;50.596;17.648;2022-09-09T12:10:28;27.20;74.30
22173;DHT22;11252;50.596;17.648;2022-09-09T12:13:17;27.20;73.80
22173;DHT22;11252;50.596;17.648;2022-09-09T12:15:54;27.00;69.20
22173;DHT22;11252;50.596;17.648;2022-09-09T12:18:26;26.60;70.20
22173;DHT22;11252;50.596;17.648;2022-09-09T12:24:10;25.80;74.80
22173;DHT22;11252;50.596;17.648;2022-09-09T12:26:41;25.90;76.60
22173;DHT22;11252;50.596;17.648;2022-09-09T12:34:59;26.30;76.80
22173;DHT22;11252;50.596;17.648;2022-09-09T12:37:34;26.30;74.70
22173;DHT22;11252;50.596;17.648;2022-09-09T12:40:36;26.20;75.30
22173;DHT22;11252;50.596;17.648;2022-09-09T12:43:20;25.90;77.00
22173;DHT22;11252;50.596;17.648;2022-09-09T12:45:52;25.80;78.70
22173;DHT22;11252;50.596;17.648;2022-09-09T12:51:01;25.70;74.80
22173;DHT22;11252;50.596;17.648;2022-09-09T12:53:33;25.50;76.90
22173;DHT22;11252;50.596;17.648;2022-09-09T12:56:04;25.30;75.50
22173;DHT22;11252;50.596;17.648;2022-09-09T12:58:36;25.30;78.30
22173;DHT22;11252;50.596;17.648;2022-09-09T13:01:05;25.40;78.80
22173;DHT22;11252;50.596;17.648;2022-09-09T13:03:41;25.40;78.90
22173;DHT22;11252;50.596;17.648;2022-09-09T13:06:23;25.50;77.70
22173;DHT22;11252;50.596;17.648;2022-09-09T13:08:59;25.30;77.20
22173;DHT22;11252;50.596;17.648;2022-09-09T13:11:54;25.30;75.90
22173;DHT22;11252;50.596;17.648;2022-09-09T13:14:28;25.00;76.20
22173;DHT22;11252;50.596;17.648;2022-09-09T13:17:02;24.80;75.90
22173;DHT22;11252;50.596;17.648;2022-09-09T13:19:36;24.60;76.90
22173;DHT22;11252;50.596;17.648;2022-09-09T13:27:42;24.60;78.20
22173;DHT22;11252;50.596;17.648;2022-09-09T13:33:20;24.80;77.40
22173;DHT22;11252;50.596;17.648;2022-09-09T13:35:58;24.80;76.40
22173;DHT22;11252;50.596;17.648;2022-09-09T13:38:28;24.60;76.30
22173;DHT22;11252;50.596;17.648;2022-09-09T13:41:07;24.30;75.70
22173;DHT22;11252;50.596;17.648;2022-09-09T13:43:38;24.00;75.80
22173;DHT22;11252;50.596;17.648;2022-09-09T13:49:00;23.90;77.20
22173;DHT22;11252;50.596;17.648;2022-09-09T13:51:36;23.90;77.90
22173;DHT22;11252;50.596;17.648;2022-09-09T13:54:05;24.00;78.10
22173;DHT22;11252;50.596;17.648;2022-09-09T13:56:34;24.10;77.40
22173;DHT22;11252;50.596;17.648;2022-09-09T13:59:06;24.00;77.00
22173;DHT22;11252;50.596;17.648;2022-09-09T14:01:33;24.00;77.10
22173;DHT22;11252;50.596;17.648;2022-09-09T14:04:04;23.80;76.90
22173;DHT22;11252;50.596;17.648;2022-09-09T14:06:36;23.70;77.70
22173;DHT22;11252;50.596;17.648;2022-09-09T14:09:14;23.60;78.30
22173;DHT22;11252;50.596;17.648;2022-09-09T14:11:43;23.70;79.30
22173;DHT22;11252;50.596;17.648;2022-09-09T14:14:10;23.70;79.10
22173;DHT22;11252;50.596;17.648;2022-09-09T14:16:38;23.60;78.70
22173;DHT22;11252;50.596;17.648;2022-09-09T14:19:05;23.60;79.00
22173;DHT22;11252;50.596;17.648;2022-09-09T14:21:33;23.50;79.00
22173;DHT22;11252;50.596;17.648;2022-09-09T14:24:01;23.50;80.10
22173;DHT22;11252;50.596;17.648;2022-09-09T14:26:29;23.50;81.00
22173;DHT22;11252;50.596;17.648;2022-09-09T14:28:57;23.40;80.40
22173;DHT22;11252;50.596;17.648;2022-09-09T14:31:25;23.40;81.40
22173;DHT22;11252;50.596;17.648;2022-09-09T14:33:53;23.30;82.60
22173;DHT22;11252;50.596;17.648;2022-09-09T14:36:21;23.20;83.00
22173;DHT22;11252;50.596;17.648;2022-09-09T14:38:48;23.20;83.20
22173;DHT22;11252;50.596;17.648;2022-09-09T14:41:17;23.20;82.30
22173;DHT22;11252;50.596;17.648;2022-09-09T14:43:45;23.10;82.10
22173;DHT22;11252;50.596;17.648;2022-09-09T14:46:17;23.00;82.80
22173;DHT22;11252;50.596;17.648;2022-09-09T14:48:48;22.90;83.30
22173;DHT22;11252;50.596;17.648;2022-09-09T14:51:20;22.90;83.90
22173;DHT22;11252;50.596;17.648;2022-09-09T14:53:59;22.90;84.00
22173;DHT22;11252;50.596;17.648;2022-09-09T14:56:28;23.00;82.50
22173;DHT22;11252;50.596;17.648;2022-09-09T14:58:58;23.20;83.50
22173;DHT22;11252;50.596;17.648;2022-09-09T15:01:26;23.30;83.70
22173;DHT22;11252;50.596;17.648;2022-09-09T15:03:56;23.30;83.10
22173;DHT22;11252;50.596;17.648;2022-09-09T15:06:27;23.40;83.30
22173;DHT22;11252;50.596;17.648;2022-09-09T15:08:55;23.40;83.60
22173;DHT22;11252;50.596;17.648;2022-09-09T15:11:27;23.40;83.30
22173;DHT22;11252;50.596;17.648;2022-09-09T15:13:55;23.40;83.60
22173;DHT22;11252;50.596;17.648;2022-09-09T15:16:25;23.30;82.90
22173;DHT22;11252;50.596;17.648;2022-09-09T15:18:56;23.10;83.40
22173;DHT22;11252;50.596;17.648;2022-09-09T15:21:28;23.00;84.20
22173;DHT22;11252;50.596;17.648;2022-09-09T15:23:57;22.90;84.20
22173;DHT22;11252;50.596;17.648;2022-09-09T15:26:25;22.80;84.70
22173;DHT22;11252;50.596;17.648;2022-09-09T15:28:54;22.80;84.50
22173;DHT22;11252;50.596;17.648;2022-09-09T15:31:24;22.70;84.80
22173;DHT22;11252;50.596;17.648;2022-09-09T15:33:53;22.60;84.30
22173;DHT22;11252;50.596;17.648;2022-09-09T15:36:33;22.60;84.90
22173;DHT22;11252;50.596;17.648;2022-09-09T15:39:02;22.60;85.00
22173;DHT22;11252;50.596;17.648;2022-09-09T15:41:30;22.50;86.00
22173;DHT22;11252;50.596;17.648;2022-09-09T15:44:01;22.50;86.30
22173;DHT22;11252;50.596;17.648;2022-09-09T15:49:19;22.50;86.80
22173;DHT22;11252;50.596;17.648;2022-09-09T15:51:59;22.40;86.30
22173;DHT22;11252;50.596;17.648;2022-09-09T15:54:35;22.40;86.50
22173;DHT22;11252;50.596;17.648;2022-09-09T15:57:08;22.30;87.30
22173;DHT22;11252;50.596;17.648;2022-09-09T15:59:38;22.30;87.40
22173;DHT22;11252;50.596;17.648;2022-09-09T16:02:08;22.30;87.30
22173;DHT22;11252;50.596;17.648;2022-09-09T16:04:36;22.30;87.30
22173;DHT22;11252;50.596;17.648;2022-09-09T16:07:05;22.30;87.30
22173;DHT22;11252;50.596;17.648;2022-09-09T16:09:34;22.20;87.60
22173;DHT22;11252;50.596;17.648;2022-09-09T16:12:04;22.10;87.80
22173;DHT22;11252;50.596;17.648;2022-09-09T16:14:37;22.10;88.10
22173;DHT22;11252;50.596;17.648;2022-09-09T16:17:06;22.00;88.40
22173;DHT22;11252;50.596;17.648;2022-09-09T16:19:33;21.90;88.80
22173;DHT22;11252;50.596;17.648;2022-09-09T16:22:02;21.80;88.90
22173;DHT22;11252;50.596;17.648;2022-09-09T16:24:31;21.80;88.80
22173;DHT22;11252;50.596;17.648;2022-09-09T16:26:58;21.80;88.30
22173;DHT22;11252;50.596;17.648;2022-09-09T16:29:26;21.80;88.60
22173;DHT22;11252;50.596;17.648;2022-09-09T16:31:54;21.70;89.20
22173;DHT22;11252;50.596;17.648;2022-09-09T16:34:28;21.70;89.80
22173;DHT22;11252;50.596;17.648;2022-09-09T16:36:56;21.60;90.30
22173;DHT22;11252;50.596;17.648;2022-09-09T16:39:24;21.50;90.30
22173;DHT22;11252;50.596;17.648;2022-09-09T16:41:52;21.50;90.40
22173;DHT22;11252;50.596;17.648;2022-09-09T16:44:20;21.40;90.50
22173;DHT22;11252;50.596;17.648;2022-09-09T16:46:48;21.40;90.40
22173;DHT22;11252;50.596;17.648;2022-09-09T16:49:26;21.30;90.80
22173;DHT22;11252;50.596;17.648;2022-09-09T16:51:58;21.30;91.50
22173;DHT22;11252;50.596;17.648;2022-09-09T16:54:26;21.30;91.50
22173;DHT22;11252;50.596;17.648;2022-09-09T16:56:55;21.20;91.90
22173;DHT22;11252;50.596;17.648;2022-09-09T16:59:25;21.10;92.20
22173;DHT22;11252;50.596;17.648;2022-09-09T17:01:56;21.10;92.20
22173;DHT22;11252;50.596;17.648;2022-09-09T17:04:27;21.00;92.20
22173;DHT22;11252;50.596;17.648;2022-09-09T17:06:55;20.90;92.20
22173;DHT22;11252;50.596;17.648;2022-09-09T17:09:25;20.90;92.20
22173;DHT22;11252;50.596;17.648;2022-09-09T17:11:56;20.80;92.20
22173;DHT22;11252;50.596;17.648;2022-09-09T17:14:24;20.80;92.20
22173;DHT22;11252;50.596;17.648;2022-09-09T17:16:52;20.70;92.20
22173;DHT22;11252;50.596;17.648;2022-09-09T17:19:19;20.60;92.20
22173;DHT22;11252;50.596;17.648;2022-09-09T17:21:47;20.60;92.20
22173;DHT22;11252;50.596;17.648;2022-09-09T17:24:34;20.50;92.20
22173;DHT22;11252;50.596;17.648;2022-09-09T17:27:02;20.40;92.20
22173;DHT22;11252;50.596;17.648;2022-09-09T17:29:30;20.40;92.20
22173;DHT22;11252;50.596;17.648;2022-09-09T17:31:57;20.30;92.20
22173;DHT22;11252;50.596;17.648;2022-09-09T17:34:25;20.30;92.20
22173;DHT22;11252;50.596;17.648;2022-09-09T17:36:52;20.30;92.20